Time;durP1;ratioP1;P1;durP2;ratioP2;P2;SDS_P1;SDS_P2;PMS_P1;PMS_P2;Temp;Humidity;BMP_temperature;BMP_pressure;BME280_temperature;BME280_humidity;BME280_pressure;Samples;Min_cycle;Max_cycle;Signal;HPM_P1;HPM_P2
2023/07/13 00:00:30;;;;;;;2.30;1.60;;;;;;;22.00;79.70;98100.41;4005937;29;20764;-78
2023/07/13 00:02:33;;;;;;;2.60;2.03;;;;;;;22.00;79.17;98087.13;4009492;29;20681;-78
2023/07/13 00:04:36;;;;;;;3.10;1.70;;;;;;;21.94;78.37;98098.47;4008403;29;20656;-79
2023/07/13 00:06:39;;;;;;;2.33;1.50;;;;;;;21.90;79.99;98089.19;4010047;29;21301;-79
2023/07/13 00:08:44;;;;;;;2.17;1.67;;;;;;;21.85;79.26;98073.75;4024738;29;20668;-79
2023/07/13 00:10:48;;;;;;;1.80;1.50;;;;;;;21.77;80.25;98075.66;4008681;29;20687;-79
2023/07/13 00:12:54;;;;;;;2.40;1.70;;;;;;;21.69;79.50;98088.94;4010460;29;20669;-79
2023/07/13 00:14:58;;;;;;;2.40;1.63;;;;;;;21.63;80.18;98088.81;4001794;29;20661;-78
2023/07/13 00:17:01;;;;;;;2.30;1.57;;;;;;;21.58;80.99;98081.38;3996150;29;20799;-79
2023/07/13 00:19:05;;;;;;;2.67;1.73;;;;;;;21.52;81.16;98083.91;4004252;29;20665;-79
2023/07/13 00:21:08;;;;;;;3.40;1.40;;;;;;;21.46;82.25;98072.13;4002707;29;20660;-79
2023/07/13 00:23:12;;;;;;;2.70;1.70;;;;;;;21.48;81.61;98077.28;4006584;29;22349;-79
2023/07/13 00:25:17;;;;;;;2.57;1.60;;;;;;;21.50;81.09;98068.13;4009731;29;20669;-79
2023/07/13 00:27:20;;;;;;;3.43;1.50;;;;;;;21.51;80.59;98074.28;4009878;29;20690;-79
2023/07/13 00:29:23;;;;;;;3.60;1.60;;;;;;;21.51;79.41;98077.75;4001974;29;21035;-78
2023/07/13 00:31:27;;;;;;;2.00;1.50;;;;;;;21.48;80.23;98078.09;4009601;29;20661;-79
2023/07/13 00:33:30;;;;;;;2.77;1.60;;;;;;;21.44;79.46;98083.88;4003906;29;20657;-79
2023/07/13 00:35:35;;;;;;;4.20;1.80;;;;;;;21.42;79.03;98078.78;3999981;29;20715;-79
2023/07/13 00:37:39;;;;;;;3.13;2.00;;;;;;;21.41;79.26;98079.75;4006828;29;20641;-79
2023/07/13 00:39:42;;;;;;;2.37;1.70;;;;;;;21.38;79.09;98072.13;4004567;29;21280;-79
2023/07/13 00:41:47;;;;;;;3.40;2.03;;;;;;;21.30;80.07;98079.28;4008233;29;20686;-79
2023/07/13 00:43:50;;;;;;;2.10;1.40;;;;;;;21.24;79.33;98085.28;4006413;29;21432;-78
2023/07/13 00:46:27;;;;;;;5.60;1.60;;;;;;;21.15;78.91;98078.34;4006347;29;20692;-79
2023/07/13 00:48:34;;;;;;;2.10;1.37;;;;;;;21.15;80.23;98083.66;3926966;30;20661;-79
2023/07/13 00:50:38;;;;;;;2.83;1.50;;;;;;;21.13;79.62;98087.47;3919219;30;20677;-78
2023/07/13 00:52:44;;;;;;;2.97;1.87;;;;;;;21.11;79.48;98098.28;3944070;29;21275;-78
2023/07/13 00:54:48;;;;;;;3.30;1.63;;;;;;;21.10;79.94;98091.28;3992721;29;20680;-78
2023/07/13 00:56:54;;;;;;;7.60;3.70;;;;;;;21.07;78.49;98090.81;3997221;29;20657;-79
2023/07/13 00:58:58;;;;;;;9.80;2.60;;;;;;;21.03;77.72;98097.44;4009137;29;20970;-79
2023/07/13 01:01:02;;;;;;;2.57;1.80;;;;;;;21.03;78.09;98089.47;4004981;29;21094;-79
2023/07/13 01:03:05;;;;;;;1.80;1.40;;;;;;;21.06;77.72;98100.56;4009654;29;20656;-79
2023/07/13 01:05:10;;;;;;;2.90;1.63;;;;;;;21.10;76.54;98103.75;4006119;29;20661;-79
2023/07/13 01:07:14;;;;;;;3.80;1.57;;;;;;;21.08;77.21;98103.91;4007394;29;20664;-79
2023/07/13 01:09:17;;;;;;;4.00;1.53;;;;;;;21.10;75.99;98109.06;4006184;29;20643;-79
2023/07/13 01:11:22;;;;;;;4.73;1.57;;;;;;;21.10;76.48;98111.69;4003480;29;20683;-79
2023/07/13 01:13:27;;;;;;;2.37;1.47;;;;;;;21.07;76.59;98110.19;4003139;29;20658;-79
2023/07/13 01:15:38;;;;;;;2.77;1.83;;;;;;;21.04;76.32;98105.22;4007891;29;20723;-79
2023/07/13 01:17:43;;;;;;;2.33;1.50;;;;;;;21.04;75.47;98097.28;4005828;29;20699;-79
2023/07/13 01:19:46;;;;;;;3.73;1.50;;;;;;;21.06;77.07;98105.88;4011048;29;20669;-79
2023/07/13 01:21:53;;;;;;;2.77;1.70;;;;;;;21.01;77.17;98096.78;4010600;29;20794;-78
2023/07/13 01:23:56;;;;;;;1.80;1.50;;;;;;;20.95;76.58;98102.78;4006961;29;20775;-78
2023/07/13 01:26:00;;;;;;;2.30;1.77;;;;;;;20.87;78.01;98100.13;3993366;29;20695;-79
2023/07/13 01:28:04;;;;;;;4.23;1.60;;;;;;;20.80;77.80;98111.59;4007463;29;20668;-79
2023/07/13 01:30:08;;;;;;;2.80;1.90;;;;;;;20.80;77.04;98099.97;4006399;29;20666;-79
2023/07/13 01:32:13;;;;;;;2.87;1.73;;;;;;;20.71;77.49;98100.16;4009086;29;20668;-78
2023/07/13 01:34:16;;;;;;;3.10;1.70;;;;;;;20.69;78.39;98106.59;4011918;29;20659;-79
2023/07/13 01:36:21;;;;;;;3.30;1.50;;;;;;;20.66;78.14;98110.41;4022169;29;20666;-79
2023/07/13 01:38:25;;;;;;;3.00;1.80;;;;;;;20.59;79.56;98112.03;4009554;29;20655;-79
2023/07/13 01:40:29;;;;;;;1.90;1.40;;;;;;;20.52;80.36;98115.53;4012523;29;20756;-73
2023/07/13 01:42:33;;;;;;;2.10;1.57;;;;;;;20.47;80.73;98107.25;4005487;29;20663;-73
2023/07/13 01:44:36;;;;;;;3.50;1.70;;;;;;;20.47;80.43;98113.38;3996641;29;20692;-73
2023/07/13 01:46:39;;;;;;;2.13;1.83;;;;;;;20.48;79.67;98108.91;4006965;29;20667;-74
2023/07/13 01:48:43;;;;;;;2.63;1.83;;;;;;;20.50;79.85;98113.03;3992019;29;21074;-73
2023/07/13 01:50:46;;;;;;;3.83;1.97;;;;;;;20.55;79.75;98109.88;4004211;29;24813;-73
2023/07/13 01:52:49;;;;;;;2.77;1.83;;;;;;;20.55;78.88;98109.88;4009002;29;20709;-73
2023/07/13 01:54:54;;;;;;;2.67;1.77;;;;;;;20.49;80.03;98116.69;4004229;29;20651;-73
2023/07/13 01:56:57;;;;;;;2.67;1.50;;;;;;;20.41;80.87;98111.38;4005599;29;20761;-74
2023/07/13 01:59:01;;;;;;;3.17;1.73;;;;;;;20.32;79.17;98114.19;4010636;29;20691;-74
2023/07/13 02:01:04;;;;;;;3.53;1.80;;;;;;;20.22;80.98;98118.84;4000684;29;20661;-73
2023/07/13 02:03:07;;;;;;;2.07;1.70;;;;;;;20.20;81.53;98119.97;3982704;29;20700;-73
2023/07/13 02:05:10;;;;;;;2.07;1.70;;;;;;;20.16;81.25;98116.84;4000848;29;20711;-73
2023/07/13 02:07:14;;;;;;;3.30;1.57;;;;;;;20.13;79.99;98122.44;4008800;29;20839;-73
2023/07/13 02:09:18;;;;;;;2.40;1.70;;;;;;;20.08;79.89;98121.28;4003086;29;20691;-73
2023/07/13 02:11:22;;;;;;;2.40;1.37;;;;;;;20.05;81.97;98122.41;4012213;29;20665;-73
2023/07/13 02:13:26;;;;;;;2.67;1.80;;;;;;;20.01;82.20;98125.53;4011113;29;20718;-73
2023/07/13 02:15:29;;;;;;;3.53;1.90;;;;;;;19.94;81.44;98133.31;4009848;29;21011;-73
2023/07/13 02:17:32;;;;;;;4.70;1.80;;;;;;;19.91;81.89;98131.00;4008473;29;20670;-73
2023/07/13 02:19:35;;;;;;;2.87;1.90;;;;;;;19.88;80.50;98135.78;4008874;29;21049;-73
2023/07/13 02:21:38;;;;;;;2.17;1.57;;;;;;;19.90;81.57;98134.63;4012800;29;20707;-73
2023/07/13 02:23:41;;;;;;;2.73;1.60;;;;;;;19.87;82.40;98124.38;4009846;29;20656;-73
2023/07/13 02:25:44;;;;;;;3.60;1.53;;;;;;;19.75;82.17;98110.72;4012291;29;21115;-73
2023/07/13 02:27:48;;;;;;;4.17;2.20;;;;;;;19.66;81.53;98123.09;4008210;29;20656;-73
2023/07/13 02:29:53;;;;;;;3.00;1.93;;;;;;;19.50;82.18;98123.03;4013397;29;20658;-73
2023/07/13 02:31:57;;;;;;;2.70;1.80;;;;;;;19.41;82.67;98121.34;4011293;29;20670;-73
2023/07/13 02:34:00;;;;;;;2.73;2.00;;;;;;;19.34;83.14;98126.59;4010279;29;20734;-73
2023/07/13 02:36:05;;;;;;;2.63;1.90;;;;;;;19.28;83.29;98121.94;4025503;29;20660;-73
2023/07/13 02:38:08;;;;;;;2.10;1.70;;;;;;;19.26;83.60;98124.75;4010822;29;20661;-73
2023/07/13 02:40:12;;;;;;;2.60;1.80;;;;;;;19.24;83.15;98125.88;4010609;29;21047;-73
2023/07/13 02:42:15;;;;;;;2.30;1.37;;;;;;;19.22;83.63;98125.22;4009869;29;20676;-73
2023/07/13 02:44:21;;;;;;;2.47;1.77;;;;;;;19.26;82.27;98131.81;4011534;29;20698;-73
2023/07/13 02:46:25;;;;;;;3.10;1.60;;;;;;;19.14;82.45;98127.78;4011647;29;21209;-73
2023/07/13 02:48:31;;;;;;;5.33;1.73;;;;;;;19.06;83.02;98127.75;4011724;29;20680;-73
2023/07/13 02:50:34;;;;;;;2.40;1.83;;;;;;;18.95;83.17;98125.34;4012544;29;20749;-73
2023/07/13 02:52:37;;;;;;;4.30;2.00;;;;;;;18.84;83.73;98124.75;3997163;29;20659;-73
2023/07/13 02:54:40;;;;;;;5.03;1.70;;;;;;;18.82;83.54;98124.91;4007043;29;20657;-76
2023/07/13 02:56:43;;;;;;;2.60;1.60;;;;;;;18.86;83.30;98134.19;3991558;29;20663;-75
2023/07/13 02:58:46;;;;;;;3.20;2.10;;;;;;;18.88;83.81;98132.22;4013413;29;20679;-75
2023/07/13 03:00:52;;;;;;;2.73;2.00;;;;;;;18.89;84.60;98133.88;3991099;29;20666;-75
2023/07/13 03:02:58;;;;;;;2.53;1.57;;;;;;;18.92;84.31;98139.69;3982661;29;20668;-75
2023/07/13 03:05:02;;;;;;;3.63;1.70;;;;;;;18.94;83.14;98144.81;3992298;29;20690;-75
2023/07/13 03:07:06;;;;;;;3.30;1.70;;;;;;;18.96;83.11;98151.63;4004882;29;20650;-75
2023/07/13 03:09:13;;;;;;;3.93;2.27;;;;;;;18.96;83.71;98146.34;4006010;29;20719;-75
2023/07/13 03:11:20;;;;;;;2.70;1.63;;;;;;;18.95;84.43;98152.59;3996284;29;20654;-76
2023/07/13 03:13:30;;;;;;;2.63;1.57;;;;;;;18.93;83.68;98151.94;4008644;29;20821;-75
2023/07/13 03:15:34;;;;;;;2.37;1.97;;;;;;;18.91;84.19;98153.91;4008207;29;21304;-75
2023/07/13 03:17:40;;;;;;;2.13;1.57;;;;;;;18.81;84.06;98151.50;4010441;29;20753;-76
2023/07/13 03:19:44;;;;;;;3.63;1.87;;;;;;;18.71;84.00;98146.31;4007328;29;21398;-75
2023/07/13 03:21:48;;;;;;;3.30;1.93;;;;;;;18.62;84.04;98156.97;4009964;29;20768;-76
2023/07/13 03:23:51;;;;;;;2.60;1.80;;;;;;;18.55;84.78;98156.75;4010121;29;20668;-75
2023/07/13 03:26:03;;;;;;;4.20;2.10;;;;;;;18.54;84.09;98165.66;4007674;29;20669;-76
2023/07/13 03:28:06;;;;;;;2.53;2.00;;;;;;;18.56;83.52;98162.84;4016198;29;21243;-75
2023/07/13 03:30:11;;;;;;;3.73;1.80;;;;;;;18.59;84.26;98162.56;4008878;29;21028;-76
2023/07/13 03:32:14;;;;;;;2.70;1.63;;;;;;;18.61;83.95;98168.50;4011589;29;20656;-75
2023/07/13 03:34:19;;;;;;;2.40;1.60;;;;;;;18.63;83.64;98166.56;4012046;29;20688;-76
2023/07/13 03:36:24;;;;;;;3.47;1.77;;;;;;;18.65;84.51;98173.34;4005423;29;20662;-75
2023/07/13 03:38:30;;;;;;;2.73;1.80;;;;;;;18.69;84.45;98174.69;3998389;29;20678;-75
2023/07/13 03:40:34;;;;;;;3.37;1.80;;;;;;;18.72;84.93;98179.69;3993617;29;20672;-75
2023/07/13 03:42:37;;;;;;;2.80;1.83;;;;;;;18.76;83.77;98180.19;4012227;29;20668;-75
2023/07/13 03:44:41;;;;;;;2.77;2.27;;;;;;;18.74;82.57;98190.94;4005132;29;20658;-75
2023/07/13 03:46:45;;;;;;;3.70;1.83;;;;;;;18.68;83.92;98178.31;4010370;29;20679;-75
2023/07/13 03:48:49;;;;;;;2.80;1.60;;;;;;;18.68;84.39;98186.25;4005142;29;20672;-75
2023/07/13 03:50:54;;;;;;;3.90;2.17;;;;;;;18.67;84.43;98192.53;4008911;29;20669;-76
2023/07/13 03:52:58;;;;;;;2.47;1.83;;;;;;;18.69;85.16;98192.38;3997626;29;20652;-75
2023/07/13 03:55:02;;;;;;;2.67;1.90;;;;;;;18.70;84.03;98197.53;3993154;29;20677;-76
2023/07/13 03:57:06;;;;;;;2.60;2.10;;;;;;;18.72;84.96;98203.47;4009646;29;20709;-76
2023/07/13 03:59:11;;;;;;;2.50;2.30;;;;;;;18.72;84.53;98206.13;3997204;29;20658;-75
2023/07/13 04:01:16;;;;;;;2.30;1.90;;;;;;;18.72;84.76;98216.69;4011069;29;21023;-75
2023/07/13 04:03:19;;;;;;;5.37;3.67;;;;;;;18.73;85.24;98228.06;3996384;29;20666;-75
2023/07/13 04:05:22;;;;;;;2.60;2.20;;;;;;;18.75;84.94;98226.97;3995525;29;20657;-75
2023/07/13 04:07:27;;;;;;;2.40;1.80;;;;;;;18.76;84.95;98217.22;4010120;29;21444;-75
2023/07/13 04:09:32;;;;;;;2.73;1.90;;;;;;;18.76;84.76;98225.94;4024466;29;20672;-75
2023/07/13 04:11:36;;;;;;;2.60;2.00;;;;;;;18.79;85.61;98222.19;4003104;29;20663;-75
2023/07/13 04:13:39;;;;;;;2.67;1.80;;;;;;;18.82;85.73;98216.59;4010858;29;21069;-75
2023/07/13 04:15:42;;;;;;;2.90;2.40;;;;;;;18.85;85.27;98222.41;4008906;29;20671;-75
2023/07/13 04:17:46;;;;;;;2.90;1.90;;;;;;;18.87;85.53;98220.47;4022169;29;20671;-75
2023/07/13 04:19:49;;;;;;;2.40;1.73;;;;;;;18.87;85.11;98215.16;4006626;29;20757;-75
2023/07/13 04:21:52;;;;;;;2.77;2.03;;;;;;;18.86;85.61;98220.59;4009701;29;20780;-75
2023/07/13 04:23:57;;;;;;;3.10;2.10;;;;;;;18.86;85.91;98223.25;4001547;29;20659;-75
2023/07/13 04:26:00;;;;;;;2.43;1.70;;;;;;;18.85;86.57;98217.13;4001543;29;20668;-75
2023/07/13 04:28:04;;;;;;;3.67;2.03;;;;;;;18.84;86.21;98223.41;4004667;29;20754;-76
2023/07/13 04:30:09;;;;;;;2.83;2.20;;;;;;;18.86;86.81;98229.34;4007138;29;21303;-75
2023/07/13 04:32:12;;;;;;;3.03;2.03;;;;;;;18.90;85.99;98228.91;4008395;29;20657;-75
2023/07/13 04:34:14;;;;;;;2.70;2.10;;;;;;;18.91;86.62;98227.09;4010363;29;20672;-75
2023/07/13 04:36:18;;;;;;;5.20;2.67;;;;;;;18.92;86.80;98234.03;4011791;29;21033;-75
2023/07/13 04:38:21;;;;;;;2.40;1.97;;;;;;;18.92;86.00;98229.56;4009848;29;21267;-75
2023/07/13 04:40:27;;;;;;;3.90;2.20;;;;;;;18.96;86.85;98232.75;4010078;29;20674;-75
2023/07/13 04:42:31;;;;;;;6.13;2.67;;;;;;;18.98;86.01;98238.72;4006780;29;20661;-75
2023/07/13 04:44:34;;;;;;;4.57;1.90;;;;;;;19.00;86.19;98242.03;4009316;29;20741;-75
2023/07/13 04:46:37;;;;;;;3.00;2.13;;;;;;;19.02;85.46;98237.47;4007490;29;21320;-75
2023/07/13 04:48:39;;;;;;;3.70;2.40;;;;;;;19.06;85.62;98241.47;4010410;29;20668;-76
2023/07/13 04:50:43;;;;;;;3.67;2.40;;;;;;;19.06;85.46;98236.16;4010807;29;20717;-76
2023/07/13 04:52:46;;;;;;;3.97;2.40;;;;;;;19.06;86.44;98241.47;4010220;29;20677;-76
2023/07/13 04:54:49;;;;;;;3.03;2.57;;;;;;;19.06;86.37;98236.16;4009843;29;20757;-75
2023/07/13 04:56:54;;;;;;;2.67;2.43;;;;;;;19.08;86.67;98245.63;4008563;29;20720;-75
2023/07/13 04:58:58;;;;;;;5.47;2.47;;;;;;;19.07;86.37;98238.66;4012350;29;21952;-76
2023/07/13 05:01:02;;;;;;;4.20;2.33;;;;;;;19.06;86.70;98241.47;4008363;29;20752;-76
2023/07/13 05:03:05;;;;;;;3.10;2.43;;;;;;;19.07;87.30;98237.84;3999871;29;20664;-75
2023/07/13 05:05:09;;;;;;;5.40;2.90;;;;;;;19.09;86.56;98241.16;3999962;29;20666;-75
2023/07/13 05:07:12;;;;;;;5.40;2.50;;;;;;;19.10;86.54;98242.81;4005232;29;21276;-75
2023/07/13 05:09:15;;;;;;;3.40;2.80;;;;;;;19.09;86.48;98247.28;3991981;29;20660;-75
2023/07/13 05:11:19;;;;;;;3.03;2.67;;;;;;;19.10;86.30;98248.09;4008242;29;20661;-75
2023/07/13 05:13:23;;;;;;;3.27;2.60;;;;;;;19.12;86.18;98252.25;4008565;29;20656;-75
2023/07/13 05:15:28;;;;;;;4.27;2.73;;;;;;;19.17;86.48;98254.44;4003303;29;24951;-76
2023/07/13 05:17:32;;;;;;;4.20;2.80;;;;;;;19.23;86.72;98251.16;4021737;29;20666;-75
2023/07/13 05:19:35;;;;;;;3.00;2.50;;;;;;;19.27;85.60;98256.00;4006717;29;20681;-75
2023/07/13 05:21:38;;;;;;;4.73;3.00;;;;;;;19.38;86.26;98261.06;3995707;29;20650;-75
2023/07/13 05:23:42;;;;;;;3.67;2.90;;;;;;;19.49;85.29;98266.09;4019209;29;20710;-75
2023/07/13 05:25:45;;;;;;;4.47;2.40;;;;;;;19.58;85.94;98265.97;4005680;29;20654;-75
2023/07/13 05:27:49;;;;;;;4.03;3.10;;;;;;;19.72;86.74;98273.34;4009510;29;20761;-75
2023/07/13 05:29:56;;;;;;;3.30;2.90;;;;;;;19.79;85.48;98263.81;4011992;29;21125;-75
2023/07/13 05:32:00;;;;;;;4.27;2.60;;;;;;;19.84;85.45;98274.75;4007563;29;20808;-75
2023/07/13 05:34:04;;;;;;;3.50;2.53;;;;;;;19.86;84.95;98264.88;4008510;29;20683;-75
2023/07/13 05:36:08;;;;;;;3.50;2.70;;;;;;;19.90;85.05;98263.56;3993186;29;20654;-76
2023/07/13 05:38:11;;;;;;;4.10;2.73;;;;;;;19.97;85.63;98272.53;4008306;29;21273;-76
2023/07/13 05:40:14;;;;;;;4.40;2.43;;;;;;;20.02;84.78;98265.75;4000260;29;20784;-76
2023/07/13 05:42:18;;;;;;;3.90;3.03;;;;;;;20.10;84.25;98267.63;3996123;29;20677;-75
2023/07/13 05:44:21;;;;;;;2.93;2.50;;;;;;;20.16;85.49;98266.97;4010868;29;20657;-75
2023/07/13 05:46:26;;;;;;;3.37;2.50;;;;;;;20.22;85.16;98274.28;4012436;29;20660;-75
2023/07/13 05:48:29;;;;;;;5.03;2.60;;;;;;;20.29;85.76;98275.31;4007476;29;20661;-76
2023/07/13 05:50:33;;;;;;;4.63;2.90;;;;;;;20.33;83.74;98278.31;4014436;29;20649;-76
2023/07/13 05:52:37;;;;;;;3.30;2.40;;;;;;;20.41;84.53;98283.63;3997139;29;20749;-76
2023/07/13 05:54:40;;;;;;;3.03;2.40;;;;;;;20.53;83.52;98285.00;4006817;29;20661;-76
2023/07/13 05:56:47;;;;;;;2.77;2.00;;;;;;;20.60;83.83;98287.84;4004749;29;20661;-76
2023/07/13 05:58:50;;;;;;;2.57;2.03;;;;;;;20.80;82.92;98284.78;4006617;29;20654;-76
2023/07/13 06:01:00;;;;;;;4.67;2.20;;;;;;;20.98;81.50;98294.25;4005135;29;20687;-76
2023/07/13 06:03:06;;;;;;;2.97;2.30;;;;;;;20.97;81.79;98283.81;4005876;29;21366;-76
2023/07/13 06:05:10;;;;;;;2.70;2.10;;;;;;;20.97;81.68;98284.66;4008440;29;21303;-76
2023/07/13 06:07:13;;;;;;;2.47;2.07;;;;;;;20.99;80.28;98280.00;4010733;29;20653;-76
2023/07/13 06:09:16;;;;;;;3.23;1.90;;;;;;;20.95;79.97;98283.16;4009566;29;20705;-76
2023/07/13 06:11:22;;;;;;;2.10;1.90;;;;;;;21.02;80.06;98281.50;4001817;29;20665;-76
2023/07/13 06:13:25;;;;;;;2.30;1.90;;;;;;;21.05;78.27;98289.09;4021599;29;20675;-76
2023/07/13 06:15:28;;;;;;;3.00;2.00;;;;;;;21.16;78.31;98292.28;4010066;29;20663;-76
2023/07/13 06:17:32;;;;;;;2.50;1.77;;;;;;;21.27;78.35;98300.75;4010665;29;21026;-76
2023/07/13 06:19:36;;;;;;;2.93;2.27;;;;;;;21.46;79.77;98311.06;4010171;29;21402;-76
2023/07/13 06:21:40;;;;;;;3.00;2.20;;;;;;;21.73;80.39;98310.72;4015901;29;20655;-76
2023/07/13 06:23:43;;;;;;;2.63;2.07;;;;;;;22.29;79.32;98322.06;4011025;29;20747;-76
2023/07/13 06:25:46;;;;;;;3.23;2.30;;;;;;;22.79;77.58;98315.34;4012198;29;21050;-76
2023/07/13 06:27:49;;;;;;;2.70;2.30;;;;;;;22.88;75.91;98320.47;4014798;29;21463;-76
2023/07/13 06:29:53;;;;;;;3.17;2.10;;;;;;;23.14;76.40;98323.66;4015230;29;20636;-75
2023/07/13 06:31:56;;;;;;;3.27;2.20;;;;;;;23.37;72.16;98324.47;4013129;29;20668;-76
2023/07/13 06:33:59;;;;;;;4.63;2.40;;;;;;;23.48;72.20;98322.22;4014054;29;20672;-76
2023/07/13 06:36:04;;;;;;;6.30;2.47;;;;;;;23.62;71.36;98323.25;4006802;29;20691;-76
2023/07/13 06:38:08;;;;;;;4.23;2.60;;;;;;;23.60;70.40;98322.63;4000840;29;20659;-76
2023/07/13 06:40:11;;;;;;;4.30;2.30;;;;;;;23.66;70.13;98328.09;4002854;29;21278;-76
2023/07/13 06:42:17;;;;;;;2.60;1.93;;;;;;;23.90;70.44;98330.53;4029150;29;20708;-74
2023/07/13 06:44:20;;;;;;;3.43;2.53;;;;;;;24.10;71.84;98321.84;4012613;29;20670;-74
2023/07/13 06:46:24;;;;;;;4.07;2.50;;;;;;;24.29;69.67;98339.94;4014688;29;20748;-74
2023/07/13 06:48:27;;;;;;;3.70;2.37;;;;;;;24.18;70.61;98325.22;3999158;29;20729;-74
2023/07/13 06:50:31;;;;;;;4.40;2.00;;;;;;;24.15;70.22;98330.09;4006108;29;20663;-74
2023/07/13 06:52:35;;;;;;;3.60;2.20;;;;;;;24.48;69.24;98334.09;4009531;29;20751;-75
2023/07/13 06:54:38;;;;;;;3.90;2.50;;;;;;;24.78;68.05;98344.56;4015493;29;21244;-74
2023/07/13 06:56:42;;;;;;;3.43;2.20;;;;;;;25.09;67.56;98342.47;4009623;29;21772;-74
2023/07/13 06:58:45;;;;;;;5.80;2.10;;;;;;;25.35;66.28;98349.75;4015115;29;20757;-74
2023/07/13 07:00:51;;;;;;;3.00;2.40;;;;;;;25.62;65.24;98352.50;4013355;29;20745;-74
2023/07/13 07:02:55;;;;;;;2.73;2.13;;;;;;;25.91;64.63;98349.69;4011917;29;20684;-74
2023/07/13 07:04:58;;;;;;;3.90;2.30;;;;;;;26.20;63.83;98352.16;4015088;29;20759;-74
2023/07/13 07:07:01;;;;;;;2.90;2.10;;;;;;;26.38;62.74;98349.84;4014581;29;20658;-74
2023/07/13 07:09:06;;;;;;;2.17;1.97;;;;;;;26.44;62.86;98344.53;4028735;29;20654;-74
2023/07/13 07:11:10;;;;;;;2.40;2.00;;;;;;;26.34;62.29;98354.78;4000424;29;21075;-74
2023/07/13 07:13:14;;;;;;;2.80;2.00;;;;;;;26.23;61.99;98352.59;4017053;29;20687;-74
2023/07/13 07:15:17;;;;;;;2.17;1.70;;;;;;;26.40;62.13;98353.16;4016976;29;20668;-74
2023/07/13 07:17:20;;;;;;;2.57;1.93;;;;;;;26.69;60.12;98354.56;4006974;29;20644;-74
2023/07/13 07:19:27;;;;;;;4.23;2.00;;;;;;;26.65;60.07;98355.97;4012329;29;21229;-74
2023/07/13 07:21:31;;;;;;;3.70;2.00;;;;;;;26.76;60.56;98355.44;4013970;29;20646;-74
2023/07/13 07:23:34;;;;;;;8.23;2.20;;;;;;;26.99;59.54;98355.13;4014674;29;21000;-74
2023/07/13 07:25:41;;;;;;;2.50;2.20;;;;;;;27.04;59.03;98354.31;4010754;29;20737;-74
2023/07/13 07:27:45;;;;;;;2.80;1.90;;;;;;;26.93;58.04;98350.56;3997520;29;20664;-74
2023/07/13 07:29:51;;;;;;;3.13;1.97;;;;;;;26.98;59.28;98348.94;4025378;29;21044;-74
2023/07/13 07:32:07;;;;;;;2.13;1.90;;;;;;;27.21;58.08;98352.97;4008696;29;20698;-74
2023/07/13 07:34:20;;;;;;;2.30;1.80;;;;;;;27.39;58.39;98347.81;4010091;29;20676;-74
2023/07/13 07:36:23;;;;;;;2.50;2.17;;;;;;;27.52;57.94;98352.44;4014005;29;20665;-74
2023/07/13 07:38:30;;;;;;;2.60;1.90;;;;;;;27.63;57.40;98352.66;4011840;29;20646;-74
2023/07/13 07:40:39;;;;;;;2.80;2.50;;;;;;;27.77;57.25;98348.94;4014404;29;21196;-75
2023/07/13 07:42:45;;;;;;;3.50;1.93;;;;;;;27.82;57.83;98347.31;4006309;29;20692;-74
2023/07/13 07:44:48;;;;;;;2.17;1.70;;;;;;;27.82;57.24;98351.84;4014607;29;20734;-74
2023/07/13 07:46:51;;;;;;;3.03;2.07;;;;;;;27.87;55.73;98347.50;4008349;29;20749;-74
2023/07/13 07:48:55;;;;;;;4.70;2.13;;;;;;;27.97;57.57;98347.13;4014451;29;21147;-74
2023/07/13 07:50:58;;;;;;;2.90;1.60;;;;;;;28.05;56.99;98345.03;4013126;29;20765;-74
2023/07/13 07:53:02;;;;;;;2.77;1.60;;;;;;;28.11;56.17;98342.34;3997127;29;20664;-74
2023/07/13 07:55:07;;;;;;;2.03;1.60;;;;;;;28.31;56.81;98342.34;4011752;29;20755;-74
2023/07/13 07:57:14;;;;;;;2.30;1.60;;;;;;;28.54;56.89;98346.22;4012712;29;20710;-74
2023/07/13 07:59:38;;;;;;;3.20;1.60;;;;;;;28.56;53.91;98349.53;4006462;29;20993;-74
2023/07/13 08:01:46;;;;;;;4.30;1.40;;;;;;;28.46;51.18;98341.06;4007460;29;20701;-75
2023/07/13 08:03:52;;;;;;;1.90;1.50;;;;;;;28.50;52.72;98345.00;4012324;29;21079;-75
2023/07/13 08:05:58;;;;;;;6.23;2.33;;;;;;;28.65;52.49;98341.00;4000429;29;20660;-75
2023/07/13 08:08:22;;;;;;;3.63;1.63;;;;;;;28.84;52.52;98342.84;4014168;29;21053;-76
2023/07/13 08:10:26;;;;;;;3.13;1.63;;;;;;;28.89;54.08;98345.72;4012513;29;20695;-75
2023/07/13 08:12:31;;;;;;;2.80;1.60;;;;;;;29.00;53.50;98337.81;4013753;29;21232;-75
2023/07/13 08:14:38;;;;;;;2.07;1.00;;;;;;;29.11;51.66;98345.22;4008842;29;20657;-75
2023/07/13 08:16:55;;;;;;;3.20;1.20;;;;;;;28.95;50.42;98346.75;4013522;29;20657;-75
2023/07/13 08:18:58;;;;;;;2.17;1.40;;;;;;;29.05;51.04;98338.00;3998511;29;20681;-75
2023/07/13 08:21:04;;;;;;;3.37;1.47;;;;;;;29.19;51.53;98339.56;4011029;29;20705;-75
2023/07/13 08:23:08;;;;;;;3.07;1.50;;;;;;;29.23;50.40;98343.53;4008568;29;20666;-75
2023/07/13 08:25:11;;;;;;;3.63;1.57;;;;;;;29.29;52.85;98342.66;4009148;29;20761;-75
2023/07/13 08:27:14;;;;;;;5.63;1.60;;;;;;;29.44;51.15;98343.22;4010293;29;21045;-75
2023/07/13 08:29:19;;;;;;;3.07;1.70;;;;;;;29.50;51.56;98345.03;4007177;29;20757;-75
2023/07/13 08:31:21;;;;;;;2.07;1.30;;;;;;;29.48;52.69;98347.09;4009596;29;20757;-76
2023/07/13 08:33:24;;;;;;;1.83;1.50;;;;;;;29.54;51.89;98348.91;4009364;29;20673;-75
2023/07/13 08:35:28;;;;;;;2.70;1.33;;;;;;;29.50;50.71;98350.41;4010078;29;21255;-75
2023/07/13 08:37:31;;;;;;;3.30;1.40;;;;;;;29.60;50.09;98353.44;4000571;29;20659;-75
2023/07/13 08:39:34;;;;;;;1.90;1.30;;;;;;;29.60;50.47;98356.13;3991380;29;21135;-75
2023/07/13 08:41:38;;;;;;;4.73;1.57;;;;;;;29.55;50.08;98356.78;3995475;29;20675;-75
2023/07/13 08:43:43;;;;;;;2.40;1.53;;;;;;;29.58;50.35;98352.84;4009027;29;21249;-75
2023/07/13 08:45:52;;;;;;;3.53;1.40;;;;;;;29.59;50.34;98358.00;4026438;29;20759;-76
2023/07/13 08:47:59;;;;;;;2.20;1.37;;;;;;;29.62;50.42;98354.06;4008283;29;20692;-75
2023/07/13 08:50:03;;;;;;;2.20;1.40;;;;;;;29.65;50.26;98350.91;4011019;29;21262;-75
2023/07/13 08:52:10;;;;;;;2.30;1.53;;;;;;;29.65;49.46;98359.81;4003180;29;20684;-75
2023/07/13 08:54:20;;;;;;;2.43;1.50;;;;;;;29.52;48.80;98345.63;4009067;29;20661;-75
2023/07/13 08:56:26;;;;;;;7.30;1.90;;;;;;;29.50;49.88;98350.41;4007727;29;20767;-75
2023/07/13 08:58:29;;;;;;;2.23;1.37;;;;;;;29.52;49.57;98351.81;3996203;29;20685;-75
2023/07/13 09:00:40;;;;;;;2.60;1.53;;;;;;;29.58;50.68;98348.25;4013275;29;20702;-75
2023/07/13 09:02:48;;;;;;;4.70;1.80;;;;;;;29.70;50.16;98351.09;4013670;29;21278;-75
2023/07/13 09:04:54;;;;;;;2.07;1.40;;;;;;;29.71;50.34;98356.25;4000176;29;20749;-75
2023/07/13 09:07:17;;;;;;;2.50;1.60;;;;;;;29.72;50.51;98349.81;4009632;29;20755;-75
2023/07/13 09:09:28;;;;;;;3.07;1.30;;;;;;;29.67;49.61;98340.78;4011840;29;20739;-75
2023/07/13 09:11:45;;;;;;;1.73;1.33;;;;;;;29.62;49.26;98338.72;4018567;29;20640;-75
2023/07/13 09:14:07;;;;;;;2.63;1.60;;;;;;;29.59;50.08;98336.47;4012515;29;20704;-75
2023/07/13 09:16:11;;;;;;;2.33;1.57;;;;;;;29.44;50.29;98336.97;4005587;29;20658;-75
2023/07/13 09:18:20;;;;;;;4.20;1.63;;;;;;;29.52;49.49;98338.38;4006686;29;20646;-75
2023/07/13 09:20:26;;;;;;;2.20;1.50;;;;;;;29.59;49.35;98339.16;4015879;29;21088;-75
2023/07/13 09:22:32;;;;;;;2.37;1.30;;;;;;;29.55;49.42;98337.13;4009596;29;20672;-75
2023/07/13 09:24:38;;;;;;;2.70;1.50;;;;;;;29.54;49.71;98336.31;4010110;29;21054;-76
2023/07/13 09:26:41;;;;;;;1.90;1.47;;;;;;;29.56;49.21;98346.84;4007489;29;20646;-75
2023/07/13 09:28:46;;;;;;;3.27;1.30;;;;;;;29.54;48.59;98330.09;4012995;29;20665;-75
2023/07/13 09:30:54;;;;;;;2.47;1.20;;;;;;;29.56;48.12;98342.28;3998980;29;20689;-75
2023/07/13 09:32:58;;;;;;;2.47;1.90;;;;;;;29.61;48.77;98345.13;4025004;29;20659;-75
2023/07/13 09:35:11;;;;;;;2.13;1.20;;;;;;;29.60;47.77;98339.97;4012409;29;20757;-75
2023/07/13 09:37:14;;;;;;;1.97;1.37;;;;;;;29.63;48.15;98339.53;4010196;29;20657;-75
2023/07/13 09:39:24;;;;;;;3.57;1.40;;;;;;;29.62;47.44;98329.84;4025826;29;20761;-75
2023/07/13 09:41:32;;;;;;;3.10;1.40;;;;;;;29.60;48.76;98331.91;4011408;29;20780;-75
2023/07/13 09:43:35;;;;;;;3.67;2.07;;;;;;;29.52;48.67;98326.81;4003192;29;20712;-75
2023/07/13 09:45:39;;;;;;;4.40;2.17;;;;;;;29.30;50.13;98330.84;4011021;29;20679;-75
2023/07/13 09:47:42;;;;;;;1.93;1.30;;;;;;;29.26;49.38;98326.97;4013100;29;21274;-75